Latest Weather Observations for Portland Harbour

IDV60801

Issued at 9:35 pm EDT Sunday 23 November 2014 (issued every 30 minutes, with the page automatically refreshed every 10 minutes)

About weather observations | Map of weather stations | Latest weather observations for VIC | Other Formats
Station Details ID: 090192 Name: PORTLAND NTC AWS Lat: -38.34 Lon: 141.61 Height: 0.0 m
Data from the previous 72 hours. | See also: Recent months for locations in Victoria
Date/Time
EDT
Temp
°C
App
Temp
°C
Dew
Point
Rel
Hum
%
Delta-T
°C
Wind Press
QNH
hPa
Press
MSL
hPa
Rain
since 9 am
mm
Dir
 
Spd
km/h
Gust
km/h
Spd
kts
Gust
kts
23/09:30pm 16.4 - - - - E 11 15 6 8 1012.1 1012.1 -
23/09:00pm 16.6 - - - - ESE 9 13 5 7 1012.0 1012.0 -
23/08:30pm 16.8 - - - - ESE 6 7 3 4 1012.6 1012.6 -
23/08:00pm 16.8 - - - - S 7 13 4 7 1011.7 1011.7 -
23/07:30pm 16.8 - - - - S 9 13 5 7 1011.9 1011.9 -
23/07:00pm 17.1 - - - - S 13 17 7 9 1011.5 1011.5 -
23/06:30pm 17.4 - - - - S 15 19 8 10 1011.3 1011.3 -
23/06:00pm 18.1 - - - - SSW 17 26 9 14 1011.8 1011.8 -
23/05:30pm 18.5 - - - - SSW 20 28 11 15 1012.1 1012.1 -
23/05:00pm 18.8 - - - - SSW 19 26 10 14 1012.2 1012.2 -
23/04:30pm 18.4 - - - - SW 20 28 11 15 1012.0 1012.0 -
23/04:00pm 18.8 - - - - SW 22 32 12 17 1011.9 1011.9 -
23/03:30pm 19.3 - - - - SW 19 30 10 16 1011.9 1011.9 -
23/03:00pm 19.1 - - - - SW 13 20 7 11 1011.7 1011.7 -
23/02:30pm 19.4 - - - - SSW 11 30 6 16 1011.7 1011.7 -
23/02:00pm 17.8 - - - - E 19 28 10 15 1011.4 1011.4 -
23/01:30pm 19.5 - - - - WNW 9 19 5 10 1011.6 1011.6 -
23/01:00pm 19.2 - - - - SSW 9 20 5 11 1011.4 1011.4 -
23/12:30pm 17.4 - - - - ESE 20 30 11 16 1011.8 1011.8 -
23/12:00pm 17.5 - - - - SE 17 20 9 11 1012.1 1012.1 -
23/11:30am 16.9 - - - - ENE 11 13 6 7 1012.2 1012.2 -
23/11:00am 16.9 - - - - ENE 11 15 6 8 1012.2 1012.2 -
23/10:30am 16.6 - - - - NNE 9 15 5 8 1012.5 1012.5 -
23/10:00am 17.5 - - - - NW 7 19 4 10 1012.8 1012.8 -
23/09:30am 16.9 - - - - NW 7 13 4 7 1012.9 1012.9 -
23/09:00am 16.3 - - - - NW 6 13 3 7 1013.0 1013.0 -
23/08:30am 15.3 - - - - NW 6 11 3 6 1012.4 1012.4 -
23/08:00am 14.4 - - - - NW 4 6 2 3 1012.2 1012.2 -
23/07:30am 12.9 - - - - WNW 6 7 3 4 1011.8 1011.8 -
23/07:00am 11.4 - - - - W 7 11 4 6 1011.5 1011.5 -
23/06:30am 11.2 - - - - WNW 11 13 6 7 1011.1 1011.1 -
23/06:00am 10.9 - - - - W 11 13 6 7 1010.9 1010.9 -
23/05:30am 11.2 - - - - W 13 15 7 8 1010.6 1010.6 -
23/05:00am 11.9 - - - - W 11 13 6 7 1010.5 1010.5 -
23/04:30am 12.1 - - - - W 11 13 6 7 1010.3 1010.3 -
23/04:00am 12.6 - - - - W 11 13 6 7 1010.1 1010.1 -
23/03:30am 13.2 - - - - WNW 9 11 5 6 1010.2 1010.2 -
23/03:00am 13.3 - - - - WNW 7 11 4 6 1010.2 1010.2 -
23/02:30am 13.5 - - - - WNW 7 11 4 6 1010.4 1010.4 -
23/02:00am 13.3 - - - - WNW 9 13 5 7 1010.6 1010.6 -
23/01:30am 13.1 - - - - W 9 11 5 6 1010.7 1010.7 -
23/01:00am 13.6 - - - - W 9 13 5 7 1010.7 1010.7 -
23/12:30am 14.3 - - - - WNW 9 13 5 7 1010.7 1010.7 -
23/12:00am 14.6 - - - - NW 7 9 4 5 1010.5 1010.5 -
 
Date/Time
EDT
Temp
°C
App
Temp
°C
Dew
Point
Rel
Hum
%
Delta-T
°C
Wind Press
QNH
hPa
Press
MSL
hPa
Rain
since 9 am
mm
Dir
 
Spd
km/h
Gust
km/h
Spd
kts
Gust
kts
22/11:30pm 14.4 - - - - WNW 6 7 3 4 1010.4 1010.4 -
22/11:00pm 14.7 - - - - W 7 11 4 6 1010.3 1010.3 -
22/10:30pm 15.1 - - - - W 7 11 4 6 1010.1 1010.1 -
22/10:00pm 15.6 - - - - W 9 17 5 9 1009.6 1009.6 -
22/09:30pm 16.1 - - - - WSW 13 17 7 9 1009.0 1009.0 -
22/09:00pm 16.2 - - - - WSW 15 22 8 12 1008.5 1008.5 -
22/08:30pm 16.5 - - - - WSW 17 26 9 14 1007.7 1007.7 -
22/08:00pm 17.0 - - - - WSW 24 33 13 18 1006.9 1006.9 -
22/07:30pm 17.4 - - - - SW 32 46 17 25 1006.5 1006.5 -
22/07:00pm 18.2 - - - - WSW 35 50 19 27 1005.9 1005.9 -
22/06:30pm 18.8 - - - - WSW 41 54 22 29 1005.7 1005.7 -
22/06:03pm 19.4 - - - - WSW 35 56 19 30 1005.2 1005.2 -
22/06:00pm 19.6 - - - - WSW 33 46 18 25 1005.2 1005.2 -
22/05:30pm 20.2 - - - - W 37 56 20 30 1004.8 1004.8 -
22/05:00pm 21.7 - - - - W 37 57 20 31 1004.2 1004.2 -
22/04:48pm 22.3 - - - - W 35 57 19 31 1004.1 1004.1 -
22/04:30pm 23.5 - - - - W 37 50 20 27 1003.7 1003.7 -
22/04:08pm 24.0 - - - - W 35 54 19 29 1003.6 1003.6 -
22/04:00pm 24.7 - - - - W 37 54 20 29 1003.6 1003.6 -
22/03:32pm 24.4 - - - - W 37 56 20 30 1003.8 1003.8 -
22/03:30pm 24.5 - - - - W 37 54 20 29 1003.8 1003.8 -
22/03:00pm 25.7 - - - - W 35 54 19 29 1003.6 1003.6 -
22/02:53pm 25.7 - - - - W 35 54 19 29 1003.7 1003.7 -
22/02:30pm 28.4 - - - - NW 35 50 19 27 1003.5 1003.5 -
22/02:15pm 28.0 - - - - NW 30 41 16 22 1003.7 1003.7 -
22/02:12pm 27.1 - - - - N 37 46 20 25 1003.6 1003.6 -
22/02:00pm 28.0 - - - - NW 35 52 19 28 1003.7 1003.7 -
22/01:30pm 28.0 - - - - NW 35 54 19 29 1003.8 1003.8 -
22/01:13pm 27.7 - - - - NNW 32 50 17 27 1004.1 1004.1 -
22/01:00pm 26.5 - - - - NNW 39 54 21 29 1004.4 1004.4 -
22/12:30pm 25.9 - - - - NNW 41 56 22 30 1004.5 1004.5 -
22/12:15pm 25.0 - - - - N 37 61 20 33 1004.7 1004.7 -
22/12:00pm 24.8 - - - - NNW 37 52 20 28 1005.0 1005.0 -
22/11:30am 22.2 - - - - N 32 43 17 23 1005.2 1005.2 -
22/11:00am 21.2 - - - - N 33 41 18 22 1005.6 1005.6 -
22/10:30am 19.8 - - - - N 30 37 16 20 1006.2 1006.2 -
22/10:00am 19.6 - - - - N 30 37 16 20 1006.6 1006.6 -
22/09:30am 18.6 - - - - N 20 26 11 14 1007.0 1007.0 -
22/09:00am 17.3 - - - - N 15 24 8 13 1007.5 1007.5 -
22/08:30am 15.5 - - - - N 15 19 8 10 1006.8 1006.8 -
22/08:00am 15.0 - - - - N 11 15 6 8 1006.7 1006.7 -
22/07:30am 15.5 - - - - NNE 22 26 12 14 1006.8 1006.8 -
22/07:00am 15.4 - - - - NNE 20 22 11 12 1006.9 1006.9 -
22/06:30am 14.2 - - - - NNE 30 35 16 19 1006.8 1006.8 -
22/06:23am 14.4 - - - - NNE 26 33 14 18 1006.5 1006.5 -
22/06:00am 14.3 - - - - N 17 22 9 12 1008.6 1008.6 -
22/05:30am 14.7 - - - - N 15 19 8 10 1009.3 1009.3 -
22/05:00am 14.9 - - - - NE 11 17 6 9 1008.4 1008.4 -
22/04:30am 15.5 - - - - E 9 13 5 7 1008.5 1008.5 -
22/04:00am 14.7 - - - - ENE 2 6 1 3 1009.3 1009.3 -
22/03:30am 14.3 - - - - WSW 7 11 4 6 1010.4 1010.4 -
22/03:00am 14.3 - - - - WSW 17 22 9 12 1011.0 1011.0 -
22/02:30am 14.2 - - - - SW 15 24 8 13 1009.9 1009.9 -
22/02:00am 14.2 - - - - N 7 9 4 5 1008.8 1008.8 -
22/01:30am 14.7 - - - - NNE 19 20 10 11 1009.1 1009.1 -
22/01:00am 14.4 - - - - N 17 19 9 10 1009.6 1009.6 -
22/12:30am 15.0 - - - - NNE 17 20 9 11 1010.1 1010.1 -
22/12:00am 15.3 - - - - NNE 15 17 8 9 1010.3 1010.3 -
 
Date/Time
EDT
Temp
°C
App
Temp
°C
Dew
Point
Rel
Hum
%
Delta-T
°C
Wind Press
QNH
hPa
Press
MSL
hPa
Rain
since 9 am
mm
Dir
 
Spd
km/h
Gust
km/h
Spd
kts
Gust
kts
21/11:30pm 14.4 - - - - N 9 11 5 6 1011.2 1011.2 -
21/11:00pm 15.4 - - - - N 9 13 5 7 1011.4 1011.4 -
21/10:30pm 15.2 - - - - NNE 7 9 4 5 1011.5 1011.5 -
21/10:00pm 15.1 - - - - NNW 4 7 2 4 1011.6 1011.6 -
21/09:30pm 15.2 - - - - WNW 6 7 3 4 1011.7 1011.7 -
21/09:00pm 15.5 - - - - W 9 13 5 7 1011.5 1011.5 -
21/08:30pm 16.1 - - - - W 15 20 8 11 1011.7 1011.7 -
21/08:00pm 16.6 - - - - WSW 17 24 9 13 1011.3 1011.3 -
21/07:30pm 16.8 - - - - WSW 17 22 9 12 1011.1 1011.1 -
21/07:00pm 17.3 - - - - WSW 20 26 11 14 1010.9 1010.9 -
21/06:30pm 17.4 - - - - WSW 19 26 10 14 1010.5 1010.5 -
21/06:00pm 17.8 - - - - WSW 24 33 13 18 1010.3 1010.3 -
21/05:30pm 18.7 - - - - WSW 19 28 10 15 1009.9 1009.9 -
21/05:00pm 18.4 - - - - WSW 17 22 9 12 1010.1 1010.1 -
21/04:30pm 17.9 - - - - WSW 19 32 10 17 1010.5 1010.5 -
21/04:00pm 17.9 - - - - SW 19 32 10 17 1010.5 1010.5 -
21/03:30pm 18.1 - - - - SW 22 33 12 18 1010.6 1010.6 -
21/03:00pm 18.7 - - - - WSW 19 30 10 16 1010.6 1010.6 -
21/02:30pm 18.2 - - - - ESE 9 17 5 9 1010.6 1010.6 -
21/02:00pm 18.6 - - - - W 9 15 5 8 1010.9 1010.9 -
21/01:30pm 17.9 - - - - WSW 9 26 5 14 1011.2 1011.2 -
21/01:00pm 17.0 - - - - WSW 17 26 9 14 1011.5 1011.5 -
21/12:30pm 16.0 - - - - W 15 35 8 19 1011.8 1011.8 -
21/12:00pm 16.0 - - - - WNW 15 26 8 14 1011.9 1011.9 -
21/11:30am 15.6 - - - - WSW 17 24 9 13 1012.1 1012.1 -
21/11:00am 15.8 - - - - W 19 24 10 13 1012.1 1012.1 -
21/10:30am 15.3 - - - - WSW 17 22 9 12 1011.9 1011.9 -
21/10:00am 14.8 - - - - W 13 26 7 14 1011.7 1011.7 -
21/09:30am 14.6 - - - - WSW 19 28 10 15 1011.7 1011.7 -
21/09:00am 14.8 - - - - WSW 20 30 11 16 1011.6 1011.6 -
21/08:30am 14.4 - - - - WSW 20 30 11 16 1011.2 1011.2 -
21/08:00am 14.1 - - - - WSW 15 22 8 12 1010.9 1010.9 -
21/07:30am 13.6 - - - - SW 17 24 9 13 1010.3 1010.3 -
21/07:00am 13.6 - - - - WSW 15 22 8 12 1009.7 1009.7 -
21/06:30am 13.5 - - - - WSW 17 22 9 12 1010.0 1010.0 -
21/06:00am 13.3 - - - - WSW 15 24 8 13 1009.7 1009.7 -
21/05:30am 12.9 - - - - WSW 11 17 6 9 1009.4 1009.4 -
21/05:00am 12.8 - - - - WSW 13 17 7 9 1008.9 1008.9 -
21/04:30am 13.1 - - - - W 9 15 5 8 1008.2 1008.2 -
21/04:00am 13.4 - - - - WSW 11 19 6 10 1008.0 1008.0 -
21/03:30am 13.2 - - - - WSW 9 11 5 6 1008.0 1008.0 -
21/03:00am 13.7 - - - - WSW 15 20 8 11 1008.1 1008.1 -
21/02:30am 13.8 - - - - WSW 13 17 7 9 1008.0 1008.0 -
21/02:00am 13.5 - - - - WSW 13 22 7 12 1008.3 1008.3 -
21/01:30am 13.6 - - - - SW 22 32 12 17 1008.2 1008.2 -
21/01:00am 14.0 - - - - WSW 20 33 11 18 1008.0 1008.0 -
21/12:30am 13.7 - - - - SW 28 41 15 22 1007.9 1007.9 -
21/12:00am 14.6 - - - - WSW 20 33 11 18 1007.5 1007.5 -
 
Date/Time
EDT
Temp
°C
App
Temp
°C
Dew
Point
Rel
Hum
%
Delta-T
°C
Wind Press
QNH
hPa
Press
MSL
hPa
Rain
since 9 am
mm
Dir
 
Spd
km/h
Gust
km/h
Spd
kts
Gust
kts
20/11:30pm 14.8 - - - - WSW 22 33 12 18 1007.3 1007.3 -
20/11:00pm 15.3 - - - - W 19 28 10 15 1007.2 1007.2 -
20/10:30pm 15.5 - - - - WSW 20 28 11 15 1006.8 1006.8 -
20/10:00pm 15.8 - - - - WSW 22 35 12 19 1006.4 1006.4 -

Other Formats:

Comma delimited format used in spreadsheet applications
http://www.bom.gov.au/fwo/IDV60801/IDV60801.95826.axf

JavaScript Object Notation format (JSON) in row-major order
http://www.bom.gov.au/fwo/IDV60801/IDV60801.95826.json